Time;durP1;ratioP1;P1;durP2;ratioP2;P2;SDS_P1;SDS_P2;PMS_P1;PMS_P2;Temp;Humidity;BMP_temperature;BMP_pressure;BME280_temperature;BME280_humidity;BME280_pressure;Samples;Min_cycle;Max_cycle;Signal;HPM_P1;HPM_P2
2022/02/07 00:02:05;;;;;;;;;;;12.40;54.70;;;;;;5162301;27;19952;-70
2022/02/07 00:04:35;;;;;;;;;;;12.40;54.60;;;;;;5162112;27;19926;-69
2022/02/07 00:07:01;;;;;;;;;;;12.40;54.60;;;;;;5162138;27;19910;-70
2022/02/07 00:09:26;;;;;;;;;;;12.30;54.60;;;;;;5162151;27;20099;-70
2022/02/07 00:11:52;;;;;;;;;;;12.30;54.80;;;;;;5162161;27;20252;-69
2022/02/07 00:14:17;;;;;;;;;;;12.40;54.90;;;;;;5162128;27;19918;-70
2022/02/07 00:16:44;;;;;;;;;;;12.40;54.80;;;;;;5162099;27;19950;-69
2022/02/07 00:19:19;;;;;;;;;;;12.40;54.80;;;;;;5162007;27;20010;-69
2022/02/07 00:21:48;;;;;;;;;;;12.40;54.70;;;;;;5161885;27;19915;-70
2022/02/07 00:24:14;;;;;;;;;;;12.40;54.70;;;;;;5161945;27;19911;-69
2022/02/07 00:26:40;;;;;;;;;;;12.40;54.80;;;;;;5161906;27;20085;-69
2022/02/07 00:29:05;;;;;;;;;;;12.40;54.80;;;;;;5161925;27;19910;-69
2022/02/07 00:31:33;;;;;;;;;;;12.40;54.70;;;;;;5161885;27;19903;-69
2022/02/07 00:33:59;;;;;;;;;;;12.40;54.70;;;;;;5161830;27;19918;-69
2022/02/07 00:36:25;;;;;;;;;;;12.40;54.70;;;;;;5161786;27;19903;-69
2022/02/07 00:38:57;;;;;;;;;;;12.40;54.80;;;;;;5161832;27;19903;-70
2022/02/07 00:41:31;;;;;;;;;;;12.40;54.70;;;;;;5161738;27;19915;-69
2022/02/07 00:43:59;;;;;;;;;;;12.40;54.70;;;;;;5161743;27;19903;-70
2022/02/07 00:46:33;;;;;;;;;;;12.40;54.60;;;;;;5161662;27;19941;-69
2022/02/07 00:48:59;;;;;;;;;;;12.30;54.70;;;;;;5161816;27;20108;-70
2022/02/07 00:51:24;;;;;;;;;;;12.30;54.60;;;;;;5161664;27;19903;-71
2022/02/07 00:53:50;;;;;;;;;;;12.30;54.90;;;;;;5161547;27;19903;-71
2022/02/07 00:56:16;;;;;;;;;;;12.30;54.90;;;;;;5161621;27;19941;-71
2022/02/07 00:58:42;;;;;;;;;;;12.30;54.90;;;;;;5161641;27;19911;-71
2022/02/07 01:01:07;;;;;;;;;;;12.40;55.00;;;;;;5161468;27;19926;-71
2022/02/07 01:03:33;;;;;;;;;;;12.40;54.90;;;;;;5161301;27;19923;-71
2022/02/07 01:05:59;;;;;;;;;;;12.40;54.80;;;;;;5161441;27;19986;-70
2022/02/07 01:08:38;;;;;;;;;;;12.50;54.70;;;;;;5165522;27;19967;-70
2022/02/07 01:11:13;;;;;;;;;;;12.40;54.60;;;;;;5165473;27;19911;-71
2022/02/07 01:14:02;;;;;;;;;;;12.40;54.70;;;;;;5165557;27;20115;-68
2022/02/07 01:22:16;;;;;;;;;;;12.40;54.70;;;;;;5165480;27;19907;-69
2022/02/07 01:56:44;;;;;;;;;;;12.30;54.80;;;;;;5164758;27;19903;-68
2022/02/07 01:59:10;;;;;;;;;;;12.30;54.60;;;;;;5164445;27;19903;-68
2022/02/07 02:01:37;;;;;;;;;;;12.40;54.70;;;;;;5164344;27;19982;-69
2022/02/07 02:04:03;;;;;;;;;;;12.40;54.70;;;;;;5164115;27;19923;-70
2022/02/07 02:06:29;;;;;;;;;;;12.40;54.80;;;;;;5164386;27;19915;-69
2022/02/07 02:08:55;;;;;;;;;;;12.40;54.70;;;;;;5164374;27;20234;-69
2022/02/07 02:11:21;;;;;;;;;;;12.30;54.70;;;;;;5164304;27;20103;-69
2022/02/07 02:16:36;;;;;;;;;;;12.30;55.10;;;;;;5164228;27;19911;-71
2022/02/07 02:33:02;;;;;;;;;;;12.40;54.90;;;;;;5163809;27;19910;-69
2022/02/07 02:38:08;;;;;;;;;;;12.40;54.80;;;;;;5163758;27;19903;-69
2022/02/07 02:45:44;;;;;;;;;;;12.40;54.70;;;;;;5163641;27;20060;-70
2022/02/07 02:48:21;;;;;;;;;;;12.40;54.70;;;;;;5163493;27;19918;-69
2022/02/07 02:50:50;;;;;;;;;;;12.40;54.80;;;;;;5145059;27;19970;-69
2022/02/07 02:53:16;;;;;;;;;;;12.30;54.70;;;;;;5163509;27;19903;-69
2022/02/07 02:55:43;;;;;;;;;;;12.30;55.00;;;;;;5163376;27;19903;-70
2022/02/07 02:58:10;;;;;;;;;;;12.40;55.00;;;;;;5163400;27;19943;-70
2022/02/07 03:00:36;;;;;;;;;;;12.40;54.90;;;;;;5163308;27;20251;-70
2022/02/07 03:03:02;;;;;;;;;;;12.30;54.70;;;;;;5162940;27;19907;-69
2022/02/07 03:05:28;;;;;;;;;;;12.30;54.90;;;;;;5163191;27;20100;-69
2022/02/07 03:07:54;;;;;;;;;;;12.30;55.00;;;;;;5163234;27;20423;-70
2022/02/07 03:10:41;;;;;;;;;;;12.30;55.00;;;;;;5163099;27;20214;-69
2022/02/07 03:18:19;;;;;;;;;;;12.40;54.70;;;;;;5162917;27;20314;-70
2022/02/07 03:20:45;;;;;;;;;;;12.40;54.60;;;;;;5162715;27;19903;-69
2022/02/07 03:23:10;;;;;;;;;;;12.30;54.60;;;;;;5162788;27;20206;-69
2022/02/07 03:25:36;;;;;;;;;;;12.40;54.70;;;;;;5162799;27;19903;-69
2022/02/07 03:28:02;;;;;;;;;;;12.30;54.80;;;;;;5162814;27;19911;-69
2022/02/07 03:30:28;;;;;;;;;;;12.30;55.10;;;;;;5162361;27;19915;-70
2022/02/07 03:32:53;;;;;;;;;;;12.30;54.90;;;;;;5162600;27;19914;-70
2022/02/07 03:35:20;;;;;;;;;;;12.40;55.00;;;;;;5162522;27;19911;-69
2022/02/07 03:37:46;;;;;;;;;;;12.40;55.00;;;;;;5162543;27;19903;-70
2022/02/07 03:40:11;;;;;;;;;;;12.30;55.00;;;;;;5162545;27;20095;-69
2022/02/07 03:42:37;;;;;;;;;;;12.30;54.90;;;;;;5162297;27;19915;-70
2022/02/07 03:45:03;;;;;;;;;;;12.30;54.90;;;;;;5162443;27;19919;-69
2022/02/07 03:47:30;;;;;;;;;;;12.30;54.90;;;;;;5162439;27;19942;-69
2022/02/07 03:49:56;;;;;;;;;;;12.30;54.90;;;;;;5162269;27;19910;-69
2022/02/07 03:52:22;;;;;;;;;;;12.30;54.80;;;;;;5162386;27;20095;-69
2022/02/07 03:54:48;;;;;;;;;;;12.30;54.80;;;;;;5162224;27;19918;-69
2022/02/07 03:57:13;;;;;;;;;;;12.30;54.80;;;;;;5162522;27;19911;-69
2022/02/07 03:59:39;;;;;;;;;;;12.30;54.80;;;;;;5162081;27;19922;-69
2022/02/07 04:02:04;;;;;;;;;;;12.30;54.80;;;;;;5162095;27;20015;-69
2022/02/07 04:04:30;;;;;;;;;;;12.30;54.80;;;;;;5161921;27;20131;-70
2022/02/07 04:06:56;;;;;;;;;;;12.30;54.60;;;;;;5143491;27;20111;-70
2022/02/07 04:09:26;;;;;;;;;;;12.30;54.80;;;;;;5161956;27;19903;-69
2022/02/07 04:11:58;;;;;;;;;;;12.20;55.10;;;;;;5162068;27;20578;-69
2022/02/07 04:14:25;;;;;;;;;;;12.30;55.10;;;;;;5161994;27;20218;-69
2022/02/07 04:16:51;;;;;;;;;;;12.30;55.10;;;;;;5161964;27;19918;-69
2022/02/07 04:19:22;;;;;;;;;;;12.30;55.10;;;;;;5161835;27;19903;-70
2022/02/07 04:21:51;;;;;;;;;;;12.30;55.10;;;;;;5161769;27;19922;-69
2022/02/07 04:24:17;;;;;;;;;;;12.30;55.10;;;;;;5161832;27;19911;-69
2022/02/07 04:26:43;;;;;;;;;;;12.30;55.10;;;;;;5161773;27;19903;-69
2022/02/07 04:29:08;;;;;;;;;;;12.30;54.90;;;;;;5161710;27;20227;-69
2022/02/07 04:31:34;;;;;;;;;;;12.30;55.10;;;;;;5161636;27;19912;-69
2022/02/07 04:34:01;;;;;;;;;;;12.30;55.00;;;;;;5161735;27;19934;-68
2022/02/07 04:36:26;;;;;;;;;;;12.30;54.80;;;;;;5161631;27;20164;-69
2022/02/07 04:38:52;;;;;;;;;;;12.30;54.90;;;;;;5161677;27;19911;-69
2022/02/07 04:41:18;;;;;;;;;;;12.30;54.80;;;;;;5161972;27;19907;-69
2022/02/07 04:43:55;;;;;;;;;;;12.30;54.90;;;;;;5165830;27;20262;-68
2022/02/07 04:51:38;;;;;;;;;;;12.20;54.90;;;;;;5165865;27;19973;-70
2022/02/07 04:55:06;;;;;;;;;;;12.20;55.10;;;;;;5165642;27;19948;-69
2022/02/07 04:59:35;;;;;;;;;;;12.30;55.30;;;;;;5165683;27;19911;-69
2022/02/07 05:02:10;;;;;;;;;;;12.30;55.10;;;;;;5165557;27;19907;-70
2022/02/07 05:04:41;;;;;;;;;;;12.30;55.20;;;;;;5165405;27;19915;-71
2022/02/07 05:15:18;;;;;;;;;;;12.20;55.00;;;;;;5165430;27;19918;-69
2022/02/07 05:17:44;;;;;;;;;;;12.30;55.10;;;;;;5165372;27;19911;-69
2022/02/07 05:20:10;;;;;;;;;;;12.30;55.00;;;;;;5165219;27;19903;-69
2022/02/07 05:22:36;;;;;;;;;;;12.30;55.00;;;;;;5165135;27;20246;-69
2022/02/07 05:25:02;;;;;;;;;;;12.30;55.00;;;;;;5165150;27;19903;-69
2022/02/07 05:27:28;;;;;;;;;;;12.30;54.80;;;;;;5165151;27;19911;-69
2022/02/07 05:29:54;;;;;;;;;;;12.20;55.00;;;;;;5165044;27;19946;-70
2022/02/07 05:32:19;;;;;;;;;;;12.20;55.10;;;;;;5165012;27;20251;-70
2022/02/07 05:34:45;;;;;;;;;;;12.10;55.20;;;;;;5164903;27;19910;-70
2022/02/07 05:37:13;;;;;;;;;;;12.10;55.40;;;;;;5164924;27;19903;-70
2022/02/07 05:39:40;;;;;;;;;;;12.20;55.40;;;;;;5164892;27;20211;-69
2022/02/07 05:42:07;;;;;;;;;;;12.20;55.30;;;;;;5164787;27;20242;-70
2022/02/07 05:44:33;;;;;;;;;;;12.30;55.20;;;;;;5164842;27;20203;-70
2022/02/07 05:46:59;;;;;;;;;;;12.30;55.00;;;;;;5164719;27;19911;-71
2022/02/07 05:49:25;;;;;;;;;;;12.30;54.90;;;;;;5146218;27;19907;-70
2022/02/07 05:51:51;;;;;;;;;;;12.30;54.90;;;;;;5164721;27;19904;-70
2022/02/07 05:54:17;;;;;;;;;;;12.30;54.90;;;;;;5164532;27;19918;-69
2022/02/07 05:56:42;;;;;;;;;;;12.30;54.90;;;;;;5164567;27;19956;-70
2022/02/07 05:59:08;;;;;;;;;;;12.30;54.80;;;;;;5164507;27;19954;-70
2022/02/07 06:01:34;;;;;;;;;;;12.30;54.90;;;;;;5164346;27;19922;-70
2022/02/07 06:03:59;;;;;;;;;;;12.30;54.90;;;;;;5164248;27;19923;-69
2022/02/07 06:06:25;;;;;;;;;;;12.30;54.80;;;;;;5164444;27;20219;-70
2022/02/07 06:08:50;;;;;;;;;;;12.20;54.80;;;;;;5145703;27;19944;-69
2022/02/07 06:11:16;;;;;;;;;;;12.30;55.20;;;;;;5164173;27;19903;-69
2022/02/07 06:13:42;;;;;;;;;;;12.30;55.00;;;;;;5164183;27;19915;-68
2022/02/07 06:16:07;;;;;;;;;;;12.40;55.00;;;;;;5164093;27;19911;-71
2022/02/07 06:18:33;;;;;;;;;;;12.30;55.00;;;;;;5164132;27;19915;-70
2022/02/07 06:21:05;;;;;;;;;;;12.20;55.00;;;;;;5164365;27;19932;-69
2022/02/07 06:23:30;;;;;;;;;;;12.30;55.00;;;;;;5163924;27;19903;-69
2022/02/07 06:25:57;;;;;;;;;;;12.30;55.10;;;;;;5163964;27;19914;-69
2022/02/07 06:28:22;;;;;;;;;;;12.30;55.20;;;;;;5163923;27;19981;-69
2022/02/07 06:30:48;;;;;;;;;;;12.30;55.00;;;;;;5163812;27;20123;-70
2022/02/07 06:33:14;;;;;;;;;;;12.30;54.90;;;;;;5163893;27;19911;-69
2022/02/07 06:35:39;;;;;;;;;;;12.30;54.90;;;;;;5163846;27;19911;-69
2022/02/07 06:38:05;;;;;;;;;;;12.30;54.90;;;;;;5163728;27;19937;-69
2022/02/07 06:40:30;;;;;;;;;;;12.30;54.70;;;;;;5163722;27;19910;-69
2022/02/07 06:42:56;;;;;;;;;;;12.30;54.90;;;;;;5163575;27;20250;-69
2022/02/07 06:45:22;;;;;;;;;;;12.20;55.00;;;;;;5163742;27;19954;-69
2022/02/07 06:47:48;;;;;;;;;;;12.20;55.20;;;;;;5163561;27;19903;-70
2022/02/07 06:50:14;;;;;;;;;;;12.20;55.40;;;;;;5163509;27;19911;-69
2022/02/07 06:52:39;;;;;;;;;;;12.30;55.30;;;;;;5163486;27;19969;-69
2022/02/07 06:55:05;;;;;;;;;;;12.30;55.20;;;;;;5163460;27;19940;-69
2022/02/07 06:57:31;;;;;;;;;;;12.30;55.10;;;;;;5163423;27;19910;-69
2022/02/07 06:59:57;;;;;;;;;;;12.30;54.90;;;;;;5163394;27;19911;-70
2022/02/07 07:02:27;;;;;;;;;;;12.20;54.90;;;;;;5163240;27;19907;-69
2022/02/07 07:04:55;;;;;;;;;;;12.20;55.20;;;;;;5162582;27;19923;-69
2022/02/07 07:07:20;;;;;;;;;;;12.30;55.20;;;;;;5163187;27;20128;-69
2022/02/07 07:09:47;;;;;;;;;;;12.30;55.20;;;;;;5163043;27;19978;-69
2022/02/07 07:12:13;;;;;;;;;;;12.30;55.20;;;;;;5162993;27;19911;-70
2022/02/07 07:14:52;;;;;;;;;;;12.30;55.20;;;;;;5162936;27;19946;-70
2022/02/07 07:17:17;;;;;;;;;;;12.30;55.00;;;;;;5162938;27;19950;-69
2022/02/07 07:19:43;;;;;;;;;;;12.30;55.00;;;;;;5162950;27;19918;-70
2022/02/07 07:22:09;;;;;;;;;;;12.20;55.00;;;;;;5162863;27;19989;-69
2022/02/07 07:24:37;;;;;;;;;;;12.20;55.20;;;;;;5162814;27;19911;-69
2022/02/07 07:27:05;;;;;;;;;;;12.10;55.30;;;;;;5162831;27;19911;-70
2022/02/07 07:29:34;;;;;;;;;;;12.10;55.30;;;;;;5162685;27;19974;-69
2022/02/07 07:32:05;;;;;;;;;;;12.20;55.60;;;;;;5162615;27;19903;-71
2022/02/07 07:34:31;;;;;;;;;;;12.30;55.50;;;;;;5162703;27;19904;-70
2022/02/07 07:36:57;;;;;;;;;;;12.30;55.30;;;;;;5162512;27;20308;-70
2022/02/07 07:39:23;;;;;;;;;;;12.30;55.30;;;;;;5162597;27;19938;-70
2022/02/07 07:41:50;;;;;;;;;;;12.30;55.10;;;;;;5162433;27;19922;-69
2022/02/07 07:44:18;;;;;;;;;;;12.30;55.00;;;;;;5162440;27;19910;-69
2022/02/07 07:46:43;;;;;;;;;;;12.40;54.80;;;;;;5162367;27;19911;-69
2022/02/07 07:49:13;;;;;;;;;;;12.40;54.90;;;;;;5162312;27;20167;-69
2022/02/07 07:54:21;;;;;;;;;;;12.40;54.90;;;;;;5162256;27;19904;-70
2022/02/07 08:02:18;;;;;;;;;;;12.30;54.70;;;;;;5162087;27;19957;-69
2022/02/07 08:04:45;;;;;;;;;;;12.20;54.80;;;;;;5162040;27;20413;-69
2022/02/07 08:09:59;;;;;;;;;;;12.10;55.20;;;;;;5162030;27;19918;-69
2022/02/07 08:12:25;;;;;;;;;;;12.10;55.40;;;;;;5162005;27;19903;-70
2022/02/07 08:14:51;;;;;;;;;;;12.20;55.40;;;;;;5162054;27;19966;-69
2022/02/07 08:17:21;;;;;;;;;;;12.20;55.30;;;;;;5161032;27;19948;-70
2022/02/07 08:19:47;;;;;;;;;;;12.30;55.30;;;;;;5161862;27;20393;-69
2022/02/07 08:22:13;;;;;;;;;;;12.30;55.10;;;;;;5161796;27;19915;-70
2022/02/07 08:24:38;;;;;;;;;;;12.30;55.00;;;;;;5161873;27;19919;-69
2022/02/07 08:27:04;;;;;;;;;;;12.30;55.00;;;;;;5161750;27;19946;-70
2022/02/07 08:29:30;;;;;;;;;;;12.30;54.90;;;;;;5161672;27;19903;-70
2022/02/07 08:31:56;;;;;;;;;;;12.20;54.90;;;;;;5161762;27;19978;-70
2022/02/07 08:34:22;;;;;;;;;;;12.20;55.10;;;;;;5161797;27;20219;-69
2022/02/07 08:36:47;;;;;;;;;;;12.30;55.10;;;;;;5161602;27;19949;-70
2022/02/07 08:39:13;;;;;;;;;;;12.30;55.10;;;;;;5161605;27;20131;-70
2022/02/07 08:41:39;;;;;;;;;;;12.30;55.10;;;;;;5161588;27;19922;-69
2022/02/07 08:44:05;;;;;;;;;;;12.30;55.00;;;;;;5161661;27;19903;-69
2022/02/07 08:46:31;;;;;;;;;;;12.40;55.00;;;;;;5161541;27;20019;-69
2022/02/07 08:48:58;;;;;;;;;;;12.40;54.90;;;;;;5161578;27;20191;-69
2022/02/07 08:51:23;;;;;;;;;;;12.40;54.80;;;;;;5161565;27;20333;-70
2022/02/07 08:53:50;;;;;;;;;;;12.30;55.10;;;;;;5161409;27;19918;-70
2022/02/07 08:56:18;;;;;;;;;;;12.30;55.10;;;;;;5161508;27;19910;-70
2022/02/07 08:58:46;;;;;;;;;;;12.30;55.10;;;;;;5161608;27;19942;-69
2022/02/07 09:01:24;;;;;;;;;;;12.30;55.00;;;;;;5161462;27;20427;-69
2022/02/07 09:06:41;;;;;;;;;;;12.40;55.00;;;;;;5161340;27;19907;-69
2022/02/07 09:11:32;;;;;;;;;;;12.30;54.80;;;;;;5161661;27;19911;-69
2022/02/07 09:14:01;;;;;;;;;;;12.30;54.90;;;;;;5161316;27;19904;-69
2022/02/07 09:16:29;;;;;;;;;;;12.40;55.10;;;;;;5142790;27;20005;-70
2022/02/07 09:18:56;;;;;;;;;;;12.30;55.00;;;;;;5161291;27;20024;-70
2022/02/07 09:21:22;;;;;;;;;;;12.30;55.00;;;;;;5161188;27;19915;-69
2022/02/07 09:23:48;;;;;;;;;;;12.30;55.10;;;;;;5161257;27;20386;-69
2022/02/07 09:26:13;;;;;;;;;;;12.40;55.00;;;;;;5161213;27;19915;-69
2022/02/07 09:28:39;;;;;;;;;;;12.40;55.00;;;;;;5163783;27;19994;-70
2022/02/07 09:31:05;;;;;;;;;;;12.40;54.90;;;;;;5165135;27;19942;-69
2022/02/07 09:33:30;;;;;;;;;;;12.40;54.90;;;;;;5146480;27;19937;-69
2022/02/07 09:35:56;;;;;;;;;;;12.40;54.90;;;;;;5165012;27;19903;-72
2022/02/07 09:38:22;;;;;;;;;;;12.40;55.40;;;;;;5164996;27;19999;-70
2022/02/07 09:40:51;;;;;;;;;;;12.40;54.80;;;;;;5164845;27;19974;-70
2022/02/07 09:43:18;;;;;;;;;;;12.40;54.80;;;;;;5164865;27;19915;-70
2022/02/07 09:45:45;;;;;;;;;;;12.40;54.90;;;;;;5164896;27;19914;-69
2022/02/07 09:48:11;;;;;;;;;;;12.40;54.90;;;;;;5164652;27;19926;-70
2022/02/07 09:50:37;;;;;;;;;;;12.40;54.90;;;;;;5164679;27;20215;-70
2022/02/07 09:53:03;;;;;;;;;;;12.40;54.90;;;;;;5146225;27;20262;-70
2022/02/07 09:55:29;;;;;;;;;;;12.40;54.90;;;;;;5164565;27;19946;-70
2022/02/07 09:57:55;;;;;;;;;;;12.40;54.90;;;;;;5164647;27;19903;-70
2022/02/07 10:00:26;;;;;;;;;;;12.40;55.00;;;;;;5164548;27;19903;-70
2022/02/07 10:03:09;;;;;;;;;;;12.40;54.90;;;;;;5145899;27;19913;-70
2022/02/07 10:05:48;;;;;;;;;;;12.40;54.90;;;;;;5164438;27;19915;-70
2022/02/07 10:11:10;;;;;;;;;;;12.40;55.00;;;;;;5164373;27;20103;-69
2022/02/07 10:19:14;;;;;;;;;;;12.50;55.00;;;;;;5132062;27;20108;-69
2022/02/07 10:38:10;;;;;;;;;;;12.50;55.00;;;;;;5164024;27;20023;-70
2022/02/07 10:40:41;;;;;;;;;;;12.50;54.90;;;;;;5162930;27;19904;-70
2022/02/07 10:48:28;;;;;;;;;;;12.50;54.80;;;;;;5163705;27;19903;-70
2022/02/07 10:51:23;;;;;;;;;;;12.50;54.60;;;;;;5145092;27;19947;-69
2022/02/07 10:53:48;;;;;;;;;;;12.50;54.70;;;;;;5141029;27;20333;-70
2022/02/07 10:56:15;;;;;;;;;;;12.50;54.60;;;;;;5163548;27;19974;-68
2022/02/07 10:58:41;;;;;;;;;;;12.50;54.50;;;;;;5163535;27;19903;-69
2022/02/07 11:01:22;;;;;;;;;;;12.50;54.50;;;;;;5163363;27;19911;-70
2022/02/07 11:03:55;;;;;;;;;;;12.60;54.40;;;;;;5144718;27;19915;-69
2022/02/07 11:06:31;;;;;;;;;;;12.50;54.70;;;;;;5163387;27;19914;-69
2022/02/07 11:14:09;;;;;;;;;;;12.50;54.80;;;;;;5163131;27;19910;-69
2022/02/07 11:16:46;;;;;;;;;;;12.50;55.00;;;;;;5163078;27;19979;-70
2022/02/07 11:27:29;;;;;;;;;;;12.60;54.80;;;;;;5163222;27;19940;-69
2022/02/07 11:29:55;;;;;;;;;;;12.60;54.70;;;;;;5162777;27;20008;-70
2022/02/07 11:32:56;;;;;;;;;;;12.60;54.80;;;;;;5144319;27;19911;-70
2022/02/07 11:35:30;;;;;;;;;;;12.60;54.70;;;;;;5107351;27;19907;-70
2022/02/07 11:38:01;;;;;;;;;;;12.60;54.50;;;;;;5162694;27;19903;-69
2022/02/07 11:40:28;;;;;;;;;;;12.60;54.60;;;;;;5162639;27;19987;-70
2022/02/07 11:43:17;;;;;;;;;;;12.60;54.60;;;;;;5162517;27;19963;-70
2022/02/07 11:46:03;;;;;;;;;;;12.60;54.80;;;;;;5130382;27;20089;-70
2022/02/07 11:48:31;;;;;;;;;;;12.60;54.80;;;;;;5162190;27;19918;-70
2022/02/07 11:50:58;;;;;;;;;;;12.60;54.80;;;;;;5162365;27;19911;-71
2022/02/07 11:53:31;;;;;;;;;;;12.60;54.90;;;;;;5162480;27;19916;-70
2022/02/07 11:56:18;;;;;;;;;;;12.60;54.90;;;;;;5162328;27;19911;-71
2022/02/07 11:59:15;;;;;;;;;;;12.60;55.10;;;;;;5162346;27;19953;-70
2022/02/07 12:01:54;;;;;;;;;;;12.60;55.10;;;;;;5143864;27;19914;-70
2022/02/07 12:04:34;;;;;;;;;;;12.60;54.80;;;;;;5162143;27;19919;-70
2022/02/07 12:07:25;;;;;;;;;;;12.60;54.70;;;;;;5162342;27;19910;-70
2022/02/07 12:09:58;;;;;;;;;;;12.60;54.80;;;;;;5157118;27;19930;-70
2022/02/07 12:12:30;;;;;;;;;;;12.60;55.00;;;;;;5143617;27;19911;-70
2022/02/07 12:15:03;;;;;;;;;;;12.60;54.60;;;;;;5143566;27;19925;-70
2022/02/07 12:17:38;;;;;;;;;;;12.60;55.00;;;;;;5162190;27;19911;-70
2022/02/07 12:20:05;;;;;;;;;;;12.60;54.80;;;;;;5162022;27;19915;-70
2022/02/07 12:22:46;;;;;;;;;;;12.60;55.00;;;;;;5161907;27;19907;-69
2022/02/07 12:25:19;;;;;;;;;;;12.60;55.00;;;;;;5162169;27;19940;-69
2022/02/07 12:27:46;;;;;;;;;;;12.60;55.00;;;;;;5162051;27;19903;-69
2022/02/07 12:32:37;;;;;;;;;;;12.60;55.20;;;;;;5161912;27;20111;-69
2022/02/07 12:35:04;;;;;;;;;;;12.60;55.20;;;;;;5161870;27;20250;-70
2022/02/07 12:37:34;;;;;;;;;;;12.60;55.30;;;;;;5161888;27;19903;-70
2022/02/07 12:40:04;;;;;;;;;;;12.60;55.30;;;;;;5161938;27;19911;-70
2022/02/07 12:42:30;;;;;;;;;;;12.60;54.80;;;;;;5143329;27;20102;-70
2022/02/07 12:44:59;;;;;;;;;;;12.60;54.60;;;;;;5143308;27;19909;-69
2022/02/07 12:47:25;;;;;;;;;;;12.70;54.60;;;;;;5161761;27;19903;-70
2022/02/07 12:49:54;;;;;;;;;;;12.70;54.80;;;;;;5161758;27;19911;-69
2022/02/07 12:52:20;;;;;;;;;;;12.70;54.60;;;;;;5161752;27;19912;-70
2022/02/07 12:54:46;;;;;;;;;;;12.70;54.70;;;;;;5161768;27;20135;-70
2022/02/07 12:57:12;;;;;;;;;;;12.70;54.70;;;;;;5161685;27;19952;-70
2022/02/07 12:59:49;;;;;;;;;;;12.70;54.70;;;;;;5161651;27;19903;-70
2022/02/07 13:02:14;;;;;;;;;;;12.70;54.70;;;;;;5161842;27;20222;-70
2022/02/07 13:04:42;;;;;;;;;;;12.70;54.70;;;;;;5165645;27;19915;-70
2022/02/07 13:07:08;;;;;;;;;;;12.80;54.90;;;;;;5165723;27;19911;-70
2022/02/07 13:09:43;;;;;;;;;;;12.70;54.90;;;;;;5165689;27;19982;-70
2022/02/07 13:14:40;;;;;;;;;;;12.70;55.10;;;;;;5165976;27;19917;-70
2022/02/07 13:17:07;;;;;;;;;;;12.70;55.20;;;;;;5165666;27;20519;-69
2022/02/07 13:19:40;;;;;;;;;;;12.70;54.90;;;;;;5165569;27;20118;-70
2022/02/07 13:22:06;;;;;;;;;;;12.70;54.90;;;;;;5165424;27;19938;-70
2022/02/07 13:24:33;;;;;;;;;;;12.70;54.90;;;;;;5165462;27;19911;-69
2022/02/07 13:27:00;;;;;;;;;;;12.70;54.50;;;;;;5146752;27;20519;-69
2022/02/07 13:29:27;;;;;;;;;;;12.80;54.70;;;;;;5165278;27;19910;-70
2022/02/07 13:31:54;;;;;;;;;;;12.80;54.80;;;;;;5165343;27;19915;-70
2022/02/07 13:34:22;;;;;;;;;;;12.80;54.70;;;;;;5165297;27;19903;-69
2022/02/07 13:36:50;;;;;;;;;;;12.80;54.60;;;;;;5165258;27;19911;-70
2022/02/07 13:39:19;;;;;;;;;;;12.80;54.70;;;;;;5165121;27;19944;-70
2022/02/07 13:42:04;;;;;;;;;;;12.80;55.20;;;;;;5165065;27;19933;-70
2022/02/07 13:44:30;;;;;;;;;;;12.80;54.80;;;;;;5164904;27;19974;-70
2022/02/07 13:46:59;;;;;;;;;;;12.70;54.90;;;;;;5146592;27;19910;-69
2022/02/07 13:49:25;;;;;;;;;;;12.70;55.10;;;;;;5164931;27;19910;-70
2022/02/07 13:51:52;;;;;;;;;;;12.70;55.10;;;;;;5165001;27;19907;-70
2022/02/07 13:54:26;;;;;;;;;;;12.70;55.00;;;;;;5164958;27;19911;-69
2022/02/07 13:56:56;;;;;;;;;;;12.70;55.10;;;;;;5164604;27;19955;-70
2022/02/07 13:59:22;;;;;;;;;;;12.80;54.90;;;;;;5165133;27;19903;-70
2022/02/07 14:01:49;;;;;;;;;;;12.80;54.70;;;;;;5164722;27;20104;-70
2022/02/07 14:04:18;;;;;;;;;;;12.80;54.40;;;;;;5164549;27;19965;-70
2022/02/07 14:07:03;;;;;;;;;;;12.90;54.80;;;;;;5164649;27;20027;-69
2022/02/07 14:09:28;;;;;;;;;;;12.80;54.70;;;;;;5164625;27;19910;-70
2022/02/07 14:11:58;;;;;;;;;;;12.90;54.70;;;;;;5164892;27;19915;-70
2022/02/07 14:14:25;;;;;;;;;;;12.90;54.80;;;;;;5163390;27;20166;-70
2022/02/07 14:16:51;;;;;;;;;;;13.00;54.60;;;;;;5164487;27;20254;-70
2022/02/07 14:19:31;;;;;;;;;;;13.00;54.50;;;;;;5164374;27;19911;-69
2022/02/07 14:21:57;;;;;;;;;;;13.00;54.70;;;;;;5164380;27;19922;-70
2022/02/07 14:24:26;;;;;;;;;;;13.00;54.70;;;;;;5164319;27;20132;-69
2022/02/07 14:26:51;;;;;;;;;;;13.00;54.70;;;;;;5164687;27;19915;-69
2022/02/07 14:29:17;;;;;;;;;;;13.00;54.80;;;;;;5164312;27;19910;-70
2022/02/07 14:31:43;;;;;;;;;;;13.00;54.70;;;;;;5164236;27;19903;-70
2022/02/07 14:34:09;;;;;;;;;;;13.10;54.50;;;;;;5164128;27;19945;-70
2022/02/07 14:36:36;;;;;;;;;;;13.10;54.30;;;;;;5164177;27;19910;-69
2022/02/07 14:39:02;;;;;;;;;;;13.10;54.50;;;;;;5164154;27;19903;-70
2022/02/07 14:41:28;;;;;;;;;;;13.10;54.40;;;;;;5164009;27;19965;-69
2022/02/07 14:44:00;;;;;;;;;;;13.10;54.50;;;;;;5164066;27;20366;-70
2022/02/07 14:46:33;;;;;;;;;;;13.10;54.70;;;;;;5164016;27;19903;-70
2022/02/07 14:48:59;;;;;;;;;;;13.10;54.60;;;;;;5163912;27;19978;-69
2022/02/07 14:51:26;;;;;;;;;;;13.20;54.60;;;;;;5163870;27;19947;-69
2022/02/07 14:53:51;;;;;;;;;;;13.20;54.50;;;;;;5163829;27;20049;-69
2022/02/07 14:56:17;;;;;;;;;;;13.20;54.60;;;;;;5164090;27;19915;-69
2022/02/07 14:58:43;;;;;;;;;;;13.20;54.80;;;;;;5163770;27;20210;-70
2022/02/07 15:01:09;;;;;;;;;;;13.20;54.60;;;;;;5163503;27;19911;-70
2022/02/07 15:03:35;;;;;;;;;;;13.20;54.70;;;;;;5163569;27;20095;-69
2022/02/07 15:06:01;;;;;;;;;;;13.20;54.60;;;;;;5163445;27;19907;-68
2022/02/07 15:08:28;;;;;;;;;;;13.20;54.60;;;;;;5163872;27;20011;-69
2022/02/07 15:10:54;;;;;;;;;;;13.20;54.50;;;;;;5163431;27;19914;-69
2022/02/07 15:13:19;;;;;;;;;;;13.20;54.40;;;;;;5163482;27;19974;-69
2022/02/07 15:15:45;;;;;;;;;;;13.20;54.60;;;;;;5163401;27;20356;-69
2022/02/07 15:18:11;;;;;;;;;;;13.20;54.70;;;;;;5163383;27;20211;-69
2022/02/07 15:20:38;;;;;;;;;;;13.20;54.60;;;;;;5163319;27;19911;-70
2022/02/07 15:23:04;;;;;;;;;;;13.10;54.80;;;;;;5163231;27;19915;-68
2022/02/07 15:25:31;;;;;;;;;;;13.10;55.10;;;;;;5162879;27;19910;-69
2022/02/07 15:28:00;;;;;;;;;;;13.10;55.00;;;;;;5144631;27;20403;-71
2022/02/07 15:30:29;;;;;;;;;;;13.00;55.00;;;;;;5163176;27;19903;-71
2022/02/07 15:32:58;;;;;;;;;;;13.00;55.30;;;;;;5163163;27;19934;-70
2022/02/07 15:35:24;;;;;;;;;;;13.00;55.40;;;;;;5163037;27;20116;-71
2022/02/07 15:37:50;;;;;;;;;;;13.00;55.30;;;;;;5162990;27;19911;-70
2022/02/07 15:40:16;;;;;;;;;;;13.00;55.50;;;;;;5144564;27;20226;-70
2022/02/07 15:42:43;;;;;;;;;;;12.90;55.50;;;;;;5144322;27;19914;-70
2022/02/07 15:45:09;;;;;;;;;;;12.90;55.40;;;;;;5162897;27;19946;-71
2022/02/07 15:47:35;;;;;;;;;;;12.90;55.40;;;;;;5162889;27;19904;-71
2022/02/07 15:50:02;;;;;;;;;;;12.90;55.40;;;;;;5162729;27;19973;-72
2022/02/07 15:52:28;;;;;;;;;;;12.90;55.40;;;;;;5162796;27;20245;-70
2022/02/07 15:54:54;;;;;;;;;;;12.90;55.80;;;;;;5144184;27;19911;-73
2022/02/07 15:57:20;;;;;;;;;;;12.90;55.70;;;;;;5162649;27;20136;-70
2022/02/07 15:59:45;;;;;;;;;;;12.90;55.70;;;;;;5162909;27;19926;-70
2022/02/07 16:02:11;;;;;;;;;;;12.90;55.40;;;;;;5162515;27;19919;-70
2022/02/07 16:04:41;;;;;;;;;;;12.90;55.60;;;;;;5161558;27;20825;-70
2022/02/07 16:07:08;;;;;;;;;;;12.90;55.70;;;;;;5162605;27;20427;-70
2022/02/07 16:09:34;;;;;;;;;;;12.90;55.70;;;;;;5162556;27;19922;-70
2022/02/07 16:12:04;;;;;;;;;;;12.90;55.60;;;;;;5162423;27;19912;-70
2022/02/07 16:14:29;;;;;;;;;;;12.90;55.50;;;;;;5162507;27;19936;-70
2022/02/07 16:16:56;;;;;;;;;;;12.80;55.70;;;;;;5162487;27;19903;-70
2022/02/07 16:19:21;;;;;;;;;;;12.80;55.70;;;;;;5162307;27;19964;-70
2022/02/07 16:21:47;;;;;;;;;;;12.80;56.40;;;;;;5162265;27;19923;-70
2022/02/07 16:24:17;;;;;;;;;;;12.80;55.80;;;;;;5162253;27;19911;-70
2022/02/07 16:26:43;;;;;;;;;;;12.80;55.80;;;;;;5162334;27;19911;-70
2022/02/07 16:29:09;;;;;;;;;;;12.80;55.80;;;;;;5162308;27;19911;-70
2022/02/07 16:31:35;;;;;;;;;;;12.80;55.90;;;;;;5162159;27;19911;-70
2022/02/07 16:34:00;;;;;;;;;;;12.80;55.80;;;;;;5143578;27;19903;-71
2022/02/07 16:36:27;;;;;;;;;;;12.80;55.70;;;;;;5162082;27;19904;-70
2022/02/07 16:38:52;;;;;;;;;;;12.80;55.50;;;;;;5161488;27;19911;-70
2022/02/07 16:41:22;;;;;;;;;;;12.80;55.70;;;;;;5162092;27;19944;-71
2022/02/07 16:43:49;;;;;;;;;;;12.80;55.60;;;;;;5162135;27;20107;-69
2022/02/07 16:46:29;;;;;;;;;;;12.90;55.50;;;;;;5162125;27;19943;-69
2022/02/07 16:48:58;;;;;;;;;;;12.80;55.20;;;;;;5162108;27;20206;-69
2022/02/07 16:51:24;;;;;;;;;;;12.80;55.50;;;;;;5162016;27;19982;-70